Terminal Aerodrome Forecast
Issued by NWS Wilmington, OH

Home | Current Version | Previous Version | Text Only | Print | Product List | Glossary On
Versions: 1 2 3 4 5 6 7 8 9 10 11 12 13 14 15 16 17 18 19 20 21 22 23 24 25 26 27 28 29 30
000
FTUS41 KILN 012300
TAFCVG
TAF
KCVG 012330Z 0200/0306 VRB04KT 1 1/2SM BR VCSH OVC005
      TEMPO 0200/0202 1SM -RASN BR
     FM020300 28006KT 4SM BR OVC012
     FM020500 30008KT P6SM OVC015
     FM021400 36005KT P6SM SCT020
      TEMPO 0215/0219 BKN020
     FM030000 07005KT P6SM BKN100=

USA.gov is the U.S. government's official web portal to all federal, state and local government web resources and services.